createdAt,value
2019-05-28T00:00:50.851Z,6.53
2019-05-28T00:03:27.768Z,7.35
2019-05-28T00:06:01.997Z,8.68
2019-05-28T00:08:36.369Z,8.53
2019-05-28T00:11:11.549Z,8.75
2019-05-28T00:13:45.981Z,8.53
2019-05-28T00:16:20.245Z,9.00
2019-05-28T00:18:54.580Z,9.00
2019-05-28T00:21:28.784Z,9.18
2019-05-28T00:24:03.070Z,9.18
2019-05-28T00:26:56.353Z,9.43
2019-05-28T00:29:34.631Z,10.25
2019-05-28T00:32:07.953Z,10.08
2019-05-28T00:34:44.483Z,9.68
2019-05-28T00:37:18.692Z,8.73
2019-05-28T00:39:54.257Z,10.00
2019-05-28T00:42:30.854Z,9.53
2019-05-28T00:45:06.638Z,8.78
2019-05-28T00:47:59.751Z,20.37
2019-05-28T00:50:34.490Z,15.03
2019-05-28T00:53:08.845Z,11.35
2019-05-28T00:55:44.130Z,9.38
2019-05-28T00:58:19.177Z,7.87
2019-05-28T01:00:54.747Z,9.70
2019-05-28T01:03:28.877Z,9.75
2019-05-28T01:06:04.021Z,11.08
2019-05-28T01:08:39.643Z,8.93
2019-05-28T01:11:13.898Z,7.97
2019-05-28T01:13:48.275Z,7.50
2019-05-28T01:16:22.709Z,7.58
2019-05-28T01:18:57.956Z,6.92
2019-05-28T01:21:32.519Z,7.72
2019-05-28T01:24:06.841Z,7.30
2019-05-28T01:26:41.157Z,6.67
2019-05-28T01:29:15.893Z,6.87
2019-05-28T01:31:50.167Z,6.67
2019-05-28T01:34:25.516Z,6.50
2019-05-28T01:36:59.656Z,6.95
2019-05-28T01:39:36.321Z,7.12
2019-05-28T01:42:09.826Z,7.47
2019-05-28T01:44:46.241Z,7.78
2019-05-28T01:47:44.121Z,8.35
2019-05-28T01:53:31.647Z,10.25
2019-05-28T01:59:36.321Z,8.68
2019-05-28T02:02:52.850Z,8.88
2019-05-28T02:05:46.675Z,8.75
2019-05-28T02:08:29.282Z,9.40
2019-05-28T02:14:36.497Z,9.83
2019-05-28T02:17:17.702Z,9.78
2019-05-28T02:20:07.730Z,10.72
2019-05-28T02:22:47.660Z,11.40
2019-05-28T02:25:23.513Z,12.95
2019-05-28T02:28:18.313Z,11.53
2019-05-28T02:31:00.903Z,11.53
2019-05-28T02:33:36.728Z,9.78
2019-05-28T02:36:12.564Z,9.65
2019-05-28T02:38:47.059Z,11.15
2019-05-28T02:41:22.640Z,10.32
2019-05-28T02:43:57.238Z,9.65
2019-05-28T02:46:33.867Z,13.60
2019-05-28T02:49:08.958Z,10.20
2019-05-28T02:51:45.243Z,9.83
2019-05-28T02:54:20.102Z,9.50
2019-05-28T02:56:57.564Z,8.95
2019-05-28T02:59:34.018Z,8.00
2019-05-28T03:02:09.298Z,6.17
2019-05-28T03:04:46.046Z,7.37
2019-05-28T03:07:22.143Z,7.45
2019-05-28T03:09:58.076Z,7.97
2019-05-28T03:12:32.356Z,7.80
2019-05-28T03:15:28.767Z,7.22
2019-05-28T03:18:03.405Z,8.03
2019-05-28T03:20:39.655Z,7.50
2019-05-28T03:23:15.535Z,7.22
2019-05-28T03:25:49.841Z,7.20
2019-05-28T03:28:26.551Z,7.47
2019-05-28T03:31:01.425Z,7.28
2019-05-28T03:33:36.075Z,7.53
2019-05-28T03:36:14.120Z,6.58
2019-05-28T03:38:49.618Z,6.90
2019-05-28T03:41:37.782Z,6.78
2019-05-28T03:44:36.424Z,6.45
2019-05-28T03:47:14.643Z,7.25
2019-05-28T03:49:49.796Z,6.80
2019-05-28T03:52:27.870Z,6.83
2019-05-28T03:55:23.323Z,6.67
2019-05-28T03:58:03.491Z,6.97
2019-05-28T04:00:48.425Z,6.92
2019-05-28T04:03:27.962Z,6.78
2019-05-28T04:06:10.297Z,6.78
2019-05-28T04:08:51.801Z,6.22
2019-05-28T04:11:43.839Z,6.05
2019-05-28T04:14:19.533Z,5.90
2019-05-28T04:17:02.854Z,6.10
2019-05-28T04:19:42.302Z,6.10
2019-05-28T04:22:27.939Z,6.25
2019-05-28T04:25:02.839Z,6.25
2019-05-28T04:28:05.560Z,6.00
2019-05-28T04:30:42.502Z,6.53
2019-05-28T04:33:23.139Z,6.65
2019-05-28T04:36:01.023Z,6.05
2019-05-28T04:38:45.061Z,6.08
2019-05-28T04:41:32.489Z,6.10
2019-05-28T04:44:22.311Z,6.92
2019-05-28T04:47:08.879Z,13.90
2019-05-28T04:49:49.617Z,11.53
2019-05-28T04:52:39.838Z,9.80
2019-05-28T04:55:14.241Z,9.00
2019-05-28T04:57:49.705Z,6.60
2019-05-28T05:00:28.875Z,6.65
2019-05-28T05:03:02.588Z,6.28
2019-05-28T05:05:39.574Z,6.20
2019-05-28T05:08:15.237Z,6.45
2019-05-28T05:10:50.028Z,6.40
2019-05-28T05:13:29.555Z,14.43
2019-05-28T05:16:04.345Z,10.03
2019-05-28T05:18:38.754Z,7.72
2019-05-28T05:21:14.838Z,6.80
2019-05-28T05:23:53.728Z,6.05
2019-05-28T05:26:37.722Z,6.37
2019-05-28T05:29:21.138Z,6.05
2019-05-28T05:32:01.387Z,5.58
2019-05-28T05:34:37.622Z,6.17
2019-05-28T05:37:12.774Z,6.72
2019-05-28T05:39:49.081Z,6.05
2019-05-28T05:42:23.519Z,6.30
2019-05-28T05:45:03.180Z,6.85
2019-05-28T05:47:40.028Z,6.85
2019-05-28T05:50:14.726Z,6.08
2019-05-28T05:52:49.371Z,6.58
2019-05-28T05:55:28.420Z,6.08
2019-05-28T05:58:04.099Z,6.20
2019-05-28T06:00:38.592Z,6.40
2019-05-28T06:03:14.258Z,6.05
2019-05-28T06:05:50.185Z,6.80
2019-05-28T06:08:24.499Z,6.05
2019-05-28T06:11:12.361Z,6.55
2019-05-28T06:13:47.732Z,6.08
2019-05-28T06:16:25.039Z,6.05
2019-05-28T06:18:59.413Z,5.75
2019-05-28T06:21:34.900Z,6.40
2019-05-28T06:24:10.140Z,6.83
2019-05-28T06:26:45.516Z,6.20
2019-05-28T06:29:21.868Z,5.85
2019-05-28T06:31:59.212Z,9.88
2019-05-28T06:34:33.473Z,9.68
2019-05-28T06:37:08.099Z,5.60
2019-05-28T06:39:43.335Z,5.70
2019-05-28T06:42:17.688Z,5.53
2019-05-28T06:44:48.184Z,5.67
2019-05-28T06:47:17.596Z,6.17
2019-05-28T06:49:47.002Z,6.62
2019-05-28T06:52:16.271Z,6.45
2019-05-28T09:44:59.423Z,4.10
2019-05-28T09:47:34.926Z,3.77
2019-05-28T09:50:29.778Z,4.00
2019-05-28T09:52:54.905Z,4.00
2019-05-28T09:55:26.173Z,4.67
2019-05-28T09:58:00.804Z,3.67
2019-05-28T12:08:34.714Z,5.53
2019-05-28T12:11:13.124Z,5.55
2019-05-28T12:13:48.153Z,6.25
2019-05-28T12:16:29.100Z,5.75
2019-05-28T12:19:02.349Z,6.20
2019-05-28T12:21:35.054Z,6.65
2019-05-28T12:24:10.510Z,6.83
2019-05-28T13:59:35.789Z,8.00
2019-05-28T14:02:11.344Z,8.03
2019-05-28T14:04:47.676Z,7.35
2019-05-28T14:07:26.710Z,9.45
2019-05-28T14:23:01.946Z,6.22
2019-05-28T14:25:39.129Z,6.22
2019-05-28T14:28:17.280Z,6.10
2019-05-28T14:30:59.921Z,5.03
2019-05-28T14:33:30.842Z,5.40
2019-05-28T14:36:10.844Z,5.25
2019-05-28T14:39:02.522Z,6.25
2019-05-28T14:41:37.447Z,5.83
2019-05-28T14:44:17.642Z,6.28
2019-05-28T14:47:02.746Z,5.67
2019-05-28T14:49:39.891Z,6.08
2019-05-28T14:52:19.349Z,5.95
2019-05-28T14:55:00.214Z,6.45
2019-05-28T14:57:35.680Z,6.70
2019-05-28T15:10:29.366Z,4.12
2019-05-28T15:13:05.970Z,4.40
2019-05-28T15:15:45.670Z,4.55
2019-05-28T15:21:29.764Z,4.35
2019-05-28T15:24:04.843Z,4.97
2019-05-28T15:26:40.749Z,4.70
2019-05-28T15:34:44.449Z,4.62
2019-05-28T15:37:25.408Z,4.85
2019-05-28T15:40:10.596Z,4.78
2019-05-28T15:43:04.947Z,4.60
2019-05-28T15:53:10.026Z,4.15
2019-05-28T15:55:45.724Z,4.00
2019-05-28T15:58:21.024Z,4.10
2019-05-28T16:01:05.182Z,4.45
2019-05-28T16:03:40.722Z,3.45
2019-05-28T16:06:16.960Z,3.92
2019-05-28T16:08:53.615Z,3.90
2019-05-28T16:11:33.443Z,4.20
2019-05-28T16:14:12.109Z,5.60
2019-05-28T16:16:49.725Z,4.03
2019-05-28T16:19:36.813Z,4.05
2019-05-28T16:22:12.601Z,4.45
2019-05-28T16:24:47.808Z,3.95
2019-05-28T16:27:24.270Z,4.12
2019-05-28T16:30:12.015Z,4.62
2019-05-28T16:32:50.963Z,4.17
2019-05-28T16:35:28.556Z,4.08
2019-05-28T16:38:04.511Z,3.83
2019-05-28T16:40:48.489Z,4.20
2019-05-28T17:11:11.431Z,4.62
2019-05-28T17:16:34.845Z,4.08
2019-05-28T17:19:07.766Z,4.10
2019-05-28T17:21:43.235Z,3.60
2019-05-28T17:24:15.094Z,3.98
2019-05-28T17:29:23.563Z,4.22
2019-05-28T17:32:03.893Z,4.10
2019-05-28T17:34:43.207Z,3.85
2019-05-28T18:17:30.148Z,4.30
2019-05-28T18:20:06.335Z,4.45
2019-05-28T18:22:41.119Z,4.08
2019-05-28T18:25:15.893Z,4.15
2019-05-28T19:35:58.081Z,5.10
2019-05-28T19:38:45.111Z,4.62
2019-05-28T19:41:09.053Z,4.97
2019-05-28T19:43:47.286Z,4.60
2019-05-28T19:46:21.831Z,5.12
2019-05-28T19:48:57.180Z,4.75
2019-05-28T19:51:31.266Z,4.70
2019-05-28T19:54:05.346Z,4.60
2019-05-28T19:56:39.915Z,5.35
2019-05-28T19:59:14.215Z,5.15
2019-05-28T20:01:48.394Z,5.03
2019-05-28T20:04:22.708Z,5.47
2019-05-28T20:06:57.933Z,4.90
2019-05-28T20:09:32.285Z,4.58
2019-05-28T20:12:12.890Z,5.12
2019-05-28T20:14:42.380Z,5.33
2019-05-28T20:17:17.906Z,4.92
2019-05-28T20:20:12.718Z,5.12
2019-05-28T20:22:47.751Z,5.22
2019-05-28T20:25:23.137Z,5.10
2019-05-28T20:27:57.304Z,5.40
2019-05-28T20:34:09.418Z,5.15
2019-05-28T20:36:44.494Z,5.50
2019-05-28T20:39:18.822Z,5.17
2019-05-28T20:41:54.090Z,5.30
2019-05-28T20:44:28.351Z,5.22
2019-05-28T20:47:02.844Z,5.60
2019-05-28T20:49:37.163Z,5.83
2019-05-28T20:52:11.332Z,5.20
2019-05-28T20:54:46.733Z,5.05
2019-05-28T20:57:21.119Z,5.30
2019-05-28T20:59:55.756Z,5.05
2019-05-28T21:02:30.094Z,5.37
2019-05-28T21:05:04.940Z,5.53
2019-05-28T21:07:39.087Z,5.58
2019-05-28T21:10:15.108Z,5.62
2019-05-28T21:12:50.536Z,5.72
2019-05-28T21:15:24.974Z,5.55
2019-05-28T21:17:59.497Z,5.58
2019-05-28T21:20:33.836Z,5.80
2019-05-28T21:23:08.038Z,5.25
2019-05-28T21:25:42.821Z,6.40
2019-05-28T21:28:16.954Z,6.17
2019-05-28T21:30:52.408Z,6.10
2019-05-28T21:33:27.504Z,5.95
2019-05-28T21:36:02.077Z,5.67
2019-05-28T21:38:36.250Z,5.67
2019-05-28T21:41:10.439Z,5.95
2019-05-28T21:43:44.691Z,6.00
2019-05-28T21:46:19.144Z,5.97
2019-05-28T21:48:54.405Z,6.65
2019-05-28T21:51:29.709Z,6.00
2019-05-28T21:54:03.949Z,6.53
2019-05-28T21:56:38.005Z,6.72
2019-05-28T21:59:12.237Z,6.05
2019-05-28T22:01:47.741Z,5.75
2019-05-28T22:04:22.104Z,6.08
2019-05-28T22:06:57.246Z,6.22
2019-05-28T22:09:31.588Z,6.00
2019-05-28T22:12:05.922Z,6.37
2019-05-28T22:14:40.236Z,5.90
2019-05-28T22:17:15.204Z,6.90
2019-05-28T22:19:49.470Z,6.20
2019-05-28T22:22:23.738Z,6.12
2019-05-28T22:24:58.559Z,6.40
2019-05-28T22:27:33.984Z,6.55
2019-05-28T22:30:12.571Z,6.55
2019-05-28T22:32:48.339Z,6.75
2019-05-28T22:35:23.670Z,6.12
2019-05-28T22:37:59.797Z,6.42
2019-05-28T22:40:35.131Z,6.85
2019-05-28T22:43:09.276Z,6.53
2019-05-28T22:45:43.759Z,6.87
2019-05-28T22:48:18.312Z,7.30
2019-05-28T22:50:52.835Z,6.45
2019-05-28T22:53:27.180Z,9.78
2019-05-28T22:56:06.841Z,7.85
2019-05-28T22:58:42.544Z,7.53
2019-05-28T23:01:17.895Z,7.08
2019-05-28T23:03:52.112Z,7.87
2019-05-28T23:06:26.435Z,7.37
2019-05-28T23:09:03.590Z,8.15
2019-05-28T23:11:37.893Z,7.50
2019-05-28T23:14:13.481Z,8.58
2019-05-28T23:16:47.565Z,7.33
2019-05-28T23:19:21.807Z,23.47
2019-05-28T23:21:56.286Z,30.48
2019-05-28T23:24:30.759Z,119.25
2019-05-28T23:27:05.499Z,85.40
2019-05-28T23:33:19.314Z,13.65
2019-05-28T23:35:59.099Z,11.45
2019-05-28T23:38:34.464Z,10.00
2019-05-28T23:41:09.321Z,9.13
2019-05-28T23:43:43.997Z,9.23
2019-05-28T23:46:18.487Z,8.50
2019-05-28T23:48:53.832Z,8.00
2019-05-28T23:51:28.141Z,7.70
2019-05-28T23:54:03.009Z,7.60
2019-05-28T23:56:37.409Z,9.03
2019-05-28T23:59:11.815Z,8.28
